Mc Leod, Texas
Current Conditions -  °F | °C
As of 2:55 PM on Friday 31 Oct 2014 (Local Time) from KASL Reporting Station
Clear Clear  
Wind Chill: 71°   Ceiling: Unl
Heat Index: 71°   Visibility: 10mi
Dew Point: 45°   Wind: 10mph
Humidity: 40%   Direction: 10°N
Pressure: 30.22"   Gusts: 14mph
Location:  32.9486°N, 94.0809°W
Report Text: KASL 311955Z AUTO 01009G12KT 320V030 10SM CLR 22/07 A3022 RMK AO1 T02160073
Loading
Personal Weather Stations






























Interactive Weather Map
Tropical Storm Tracking
New forecast layout! Learn more

10-Day Weather Forecast

Advertisements
Track Severe Weather on mobile